Time;durP1;ratioP1;P1;durP2;ratioP2;P2;SDS_P1;SDS_P2;PMS_P1;PMS_P2;Temp;Humidity;BMP_temperature;BMP_pressure;BME280_temperature;BME280_humidity;BME280_pressure;Samples;Min_cycle;Max_cycle;Signal;HPM_P1;HPM_P2
2020/12/16 00:02:06;;;;;;;23.52;11.93;;;9.00;99.90;;;;;;4998269;28;20052;-80
2020/12/16 00:04:32;;;;;;;24.20;11.70;;;9.00;99.90;;;;;;5002110;28;20042;-80
2020/12/16 00:06:58;;;;;;;25.55;13.02;;;9.10;99.90;;;;;;5002802;28;20026;-81
2020/12/16 00:09:23;;;;;;;24.08;12.65;;;9.10;99.90;;;;;;5008052;28;20488;-80
2020/12/16 00:11:49;;;;;;;26.13;13.07;;;9.10;99.90;;;;;;5003355;28;20464;-79
2020/12/16 00:14:14;;;;;;;28.17;12.68;;;9.10;99.90;;;;;;5003633;28;20057;-80
2020/12/16 00:16:40;;;;;;;21.98;12.40;;;9.10;99.90;;;;;;5007685;28;20041;-79
2020/12/16 00:19:05;;;;;;;22.40;11.95;;;9.10;99.90;;;;;;5005456;28;20539;-80
2020/12/16 00:21:31;;;;;;;22.88;12.32;;;9.10;99.90;;;;;;5004348;28;20033;-79
2020/12/16 00:23:56;;;;;;;20.63;11.63;;;9.10;99.90;;;;;;5007557;28;20022;-80
2020/12/16 00:26:22;;;;;;;21.02;12.00;;;9.00;99.90;;;;;;5007788;28;20033;-80
2020/12/16 00:28:47;;;;;;;20.15;11.85;;;9.10;99.90;;;;;;4993284;28;20018;-80
2020/12/16 00:31:14;;;;;;;21.42;12.30;;;9.10;99.90;;;;;;5004869;28;20087;-80
2020/12/16 00:33:40;;;;;;;22.02;11.63;;;9.10;99.90;;;;;;5005746;28;20026;-80
2020/12/16 00:36:06;;;;;;;21.20;12.23;;;9.10;99.90;;;;;;5008061;28;20029;-80
2020/12/16 00:38:31;;;;;;;20.58;12.02;;;9.10;99.90;;;;;;5011498;28;20522;-80
2020/12/16 00:40:57;;;;;;;24.73;12.52;;;9.10;99.90;;;;;;5018857;28;20013;-80
2020/12/16 00:43:22;;;;;;;22.45;11.65;;;9.10;99.90;;;;;;5011509;28;20104;-80
2020/12/16 00:45:48;;;;;;;24.00;12.25;;;9.10;99.90;;;;;;5010335;28;20026;-80
2020/12/16 00:48:13;;;;;;;24.92;12.48;;;9.10;99.90;;;;;;5008614;28;20761;-80
2020/12/16 00:50:39;;;;;;;20.73;11.82;;;9.10;99.90;;;;;;5011643;28;20045;-80
2020/12/16 00:53:05;;;;;;;23.73;12.20;;;9.20;99.90;;;;;;5003062;28;20033;-80
2020/12/16 00:55:30;;;;;;;22.15;12.25;;;9.10;99.90;;;;;;5005148;28;20053;-80
2020/12/16 00:57:56;;;;;;;20.77;11.15;;;9.20;99.90;;;;;;5010109;28;20026;-80
2020/12/16 01:00:22;;;;;;;19.45;10.75;;;9.20;99.90;;;;;;5013539;28;20480;-80
2020/12/16 01:02:48;;;;;;;21.27;11.45;;;9.20;99.90;;;;;;5002880;28;20028;-80
2020/12/16 01:05:18;;;;;;;21.70;11.38;;;9.20;99.90;;;;;;5010374;28;20065;-80
2020/12/16 01:07:44;;;;;;;20.38;10.95;;;9.20;99.90;;;;;;5010553;28;20484;-80
2020/12/16 01:10:12;;;;;;;20.17;11.73;;;9.20;99.90;;;;;;5006129;28;20044;-80
2020/12/16 01:12:39;;;;;;;20.92;11.50;;;9.20;99.90;;;;;;5006840;28;20084;-79
2020/12/16 01:15:14;;;;;;;20.65;11.60;;;9.20;99.90;;;;;;5008292;28;20125;-80
2020/12/16 01:17:41;;;;;;;20.98;10.95;;;9.20;99.90;;;;;;5003273;28;20061;-80
2020/12/16 01:20:10;;;;;;;21.60;11.35;;;9.20;99.90;;;;;;5009496;28;20117;-80
2020/12/16 01:22:43;;;;;;;22.20;11.85;;;9.20;99.90;;;;;;5007051;28;20109;-79
2020/12/16 01:25:09;;;;;;;21.35;11.77;;;9.30;99.90;;;;;;5001788;28;20060;-80
2020/12/16 01:27:35;;;;;;;19.38;11.35;;;9.30;99.90;;;;;;5010716;28;20486;-79
2020/12/16 01:30:02;;;;;;;19.27;10.90;;;9.30;99.90;;;;;;5006094;28;20129;-80
2020/12/16 01:32:28;;;;;;;17.83;10.80;;;9.30;99.90;;;;;;4998897;28;20049;-80
2020/12/16 01:34:54;;;;;;;21.95;12.15;;;9.30;99.90;;;;;;5008825;28;20239;-80
2020/12/16 01:37:19;;;;;;;21.55;12.27;;;9.30;99.90;;;;;;5003310;28;20034;-79
2020/12/16 01:39:45;;;;;;;23.23;11.80;;;9.30;99.90;;;;;;5011783;28;20041;-79
2020/12/16 01:42:13;;;;;;;17.77;11.35;;;9.30;99.90;;;;;;5009760;28;20034;-80
2020/12/16 01:44:39;;;;;;;20.88;12.07;;;9.30;99.90;;;;;;5010052;28;20037;-80
2020/12/16 01:47:04;;;;;;;23.90;11.82;;;9.30;99.90;;;;;;5003185;28;20097;-80
2020/12/16 01:49:30;;;;;;;19.85;11.00;;;9.40;99.90;;;;;;5007988;28;20026;-80
2020/12/16 01:51:58;;;;;;;23.25;11.85;;;9.40;99.90;;;;;;4998644;28;20030;-79
2020/12/16 01:54:25;;;;;;;21.45;12.15;;;9.40;99.90;;;;;;5009755;28;20030;-79
2020/12/16 01:56:55;;;;;;;22.00;12.73;;;9.30;99.90;;;;;;5008780;28;20476;-79
2020/12/16 01:59:21;;;;;;;20.95;11.93;;;9.40;99.90;;;;;;5009995;28;20033;-79
2020/12/16 02:01:51;;;;;;;22.17;12.13;;;9.40;99.90;;;;;;5003558;28;20044;-79
2020/12/16 02:04:22;;;;;;;21.38;12.38;;;9.40;99.90;;;;;;4993124;28;492966;-79
2020/12/16 02:06:49;;;;;;;22.38;12.32;;;9.40;99.90;;;;;;5010141;28;20102;-79
2020/12/16 02:09:15;;;;;;;25.42;12.40;;;9.40;99.90;;;;;;5011084;28;20378;-79
2020/12/16 02:11:41;;;;;;;24.15;12.88;;;9.40;99.90;;;;;;5001819;28;20076;-79
2020/12/16 02:14:08;;;;;;;24.17;12.68;;;9.40;99.90;;;;;;5001257;28;20026;-79
2020/12/16 02:16:34;;;;;;;22.20;12.48;;;9.40;99.90;;;;;;5005412;28;20038;-79
2020/12/16 02:19:00;;;;;;;24.50;12.00;;;9.40;99.90;;;;;;5009503;28;20092;-80
2020/12/16 02:21:27;;;;;;;23.33;12.55;;;9.40;99.90;;;;;;5008021;28;20053;-79
2020/12/16 02:24:01;;;;;;;20.23;11.40;;;9.40;99.90;;;;;;4999342;28;20104;-79
2020/12/16 02:26:27;;;;;;;25.92;12.77;;;9.40;99.90;;;;;;4997649;28;20026;-79
2020/12/16 02:28:55;;;;;;;21.65;12.55;;;9.40;99.90;;;;;;5009045;28;20045;-80
2020/12/16 02:31:21;;;;;;;22.77;12.80;;;9.50;99.90;;;;;;5007231;28;20037;-80
2020/12/16 02:33:46;;;;;;;21.98;11.65;;;9.50;99.90;;;;;;5000523;28;20026;-79
2020/12/16 02:36:12;;;;;;;21.58;12.20;;;9.40;99.90;;;;;;5006193;28;20129;-79
2020/12/16 02:38:45;;;;;;;23.48;12.77;;;9.40;99.90;;;;;;5007969;28;20033;-79
2020/12/16 02:41:10;;;;;;;25.33;12.73;;;9.40;99.90;;;;;;5016057;28;20029;-80
2020/12/16 02:43:36;;;;;;;24.75;13.43;;;9.40;99.90;;;;;;5008930;28;20492;-79
2020/12/16 02:46:01;;;;;;;26.42;12.93;;;9.50;99.90;;;;;;5007261;28;20058;-79
2020/12/16 02:48:27;;;;;;;24.25;13.05;;;9.40;99.90;;;;;;5008967;28;20053;-80
2020/12/16 02:50:53;;;;;;;23.83;12.05;;;9.50;99.90;;;;;;5009225;28;20026;-80
2020/12/16 02:53:19;;;;;;;25.73;13.05;;;9.40;99.90;;;;;;4998384;28;20117;-79
2020/12/16 02:55:44;;;;;;;26.15;13.20;;;9.50;99.90;;;;;;5003233;28;20121;-80
2020/12/16 02:58:10;;;;;;;24.02;13.15;;;9.50;99.90;;;;;;5009077;28;20477;-79
2020/12/16 03:00:35;;;;;;;28.60;13.27;;;9.50;99.90;;;;;;5006707;28;20033;-80
2020/12/16 03:03:01;;;;;;;28.30;12.80;;;9.50;99.90;;;;;;5007917;28;20105;-79
2020/12/16 03:05:26;;;;;;;27.33;13.43;;;9.50;99.90;;;;;;5007994;28;20298;-79
2020/12/16 03:07:52;;;;;;;23.27;13.20;;;9.50;99.90;;;;;;5005524;28;20022;-80
2020/12/16 03:10:17;;;;;;;26.15;13.48;;;9.50;99.90;;;;;;5007313;28;20022;-79
2020/12/16 03:12:43;;;;;;;31.77;14.07;;;9.50;99.90;;;;;;5010082;28;20029;-80
2020/12/16 03:15:08;;;;;;;31.60;14.18;;;9.50;99.90;;;;;;5009080;28;20042;-80
2020/12/16 03:17:34;;;;;;;26.38;14.10;;;9.60;99.90;;;;;;5008875;28;20026;-80
2020/12/16 03:19:59;;;;;;;27.20;14.65;;;9.50;99.90;;;;;;5006024;28;20029;-80
2020/12/16 03:22:24;;;;;;;33.58;14.57;;;9.50;99.90;;;;;;5002851;28;20034;-79
2020/12/16 03:24:50;;;;;;;31.15;14.80;;;9.60;99.90;;;;;;5009384;28;20155;-79
2020/12/16 03:27:15;;;;;;;34.78;17.52;;;9.60;99.90;;;;;;5009469;28;20025;-79
2020/12/16 03:29:41;;;;;;;35.03;15.57;;;9.60;99.90;;;;;;5009023;28;20117;-79
2020/12/16 03:32:06;;;;;;;40.78;16.42;;;9.60;99.90;;;;;;5007747;28;20075;-80
2020/12/16 03:34:32;;;;;;;37.38;15.95;;;9.60;99.90;;;;;;5008926;28;20032;-79
2020/12/16 03:36:57;;;;;;;32.30;15.73;;;9.60;99.90;;;;;;5007217;28;20443;-79
2020/12/16 03:39:23;;;;;;;40.83;15.73;;;9.60;99.90;;;;;;5010116;28;20041;-79
2020/12/16 03:41:51;;;;;;;39.63;16.50;;;9.60;99.90;;;;;;5007972;28;20251;-79
2020/12/16 03:44:19;;;;;;;33.35;17.20;;;9.70;99.90;;;;;;5005851;28;20476;-79
2020/12/16 03:46:44;;;;;;;32.15;15.30;;;9.70;99.90;;;;;;5006570;28;20026;-79
2020/12/16 03:49:10;;;;;;;37.63;15.10;;;9.70;99.90;;;;;;5008921;28;20084;-79
2020/12/16 03:51:35;;;;;;;33.72;15.82;;;9.70;99.90;;;;;;5004693;28;20030;-79
2020/12/16 03:54:01;;;;;;;38.13;14.60;;;9.70;99.90;;;;;;5008631;28;20030;-79
2020/12/16 03:56:26;;;;;;;33.92;14.85;;;9.70;99.90;;;;;;5005662;28;20022;-79
2020/12/16 03:58:51;;;;;;;32.25;14.85;;;9.70;99.90;;;;;;5009155;28;20108;-79
2020/12/16 04:01:19;;;;;;;32.88;15.98;;;9.60;99.90;;;;;;5004194;28;20113;-79
2020/12/16 04:03:45;;;;;;;37.95;15.40;;;9.60;99.90;;;;;;5004540;28;20042;-79
2020/12/16 04:06:12;;;;;;;32.78;15.63;;;9.60;99.90;;;;;;5005887;28;20018;-79
2020/12/16 04:08:39;;;;;;;39.90;15.23;;;9.60;99.90;;;;;;5007364;28;20060;-79
2020/12/16 04:11:10;;;;;;;34.45;15.57;;;9.60;99.90;;;;;;5007526;28;20503;-79
2020/12/16 04:13:36;;;;;;;36.10;15.82;;;9.60;99.90;;;;;;5007454;28;20535;-79
2020/12/16 04:16:03;;;;;;;31.70;15.07;;;9.60;99.90;;;;;;5006988;28;20026;-79
2020/12/16 04:18:28;;;;;;;34.47;15.32;;;9.60;99.90;;;;;;5007142;28;20026;-79
2020/12/16 04:20:54;;;;;;;37.75;16.77;;;9.70;99.90;;;;;;4998562;28;20121;-79
2020/12/16 04:23:19;;;;;;;36.10;17.38;;;9.70;99.90;;;;;;4999927;28;20037;-80
2020/12/16 04:25:44;;;;;;;36.00;17.35;;;9.70;99.90;;;;;;5008592;28;20033;-79
2020/12/16 04:28:10;;;;;;;40.05;17.38;;;9.80;99.90;;;;;;5006484;28;20573;-79
2020/12/16 04:30:35;;;;;;;37.78;18.92;;;9.80;99.90;;;;;;5007962;28;20385;-79
2020/12/16 04:33:01;;;;;;;40.72;18.70;;;9.80;99.90;;;;;;5006703;28;20091;-79
2020/12/16 04:35:28;;;;;;;37.60;17.38;;;9.70;99.90;;;;;;5008006;28;20037;-80
2020/12/16 04:37:54;;;;;;;37.33;17.38;;;9.70;99.90;;;;;;5008183;28;20038;-79
2020/12/16 04:40:21;;;;;;;36.00;17.77;;;9.70;99.90;;;;;;5016649;28;20026;-79
2020/12/16 04:43:09;;;;;;;33.83;17.15;;;9.70;99.90;;;;;;5010922;28;20069;-79
2020/12/16 04:45:38;;;;;;;34.83;17.38;;;9.70;99.90;;;;;;5007918;28;20548;-79
2020/12/16 04:48:06;;;;;;;40.65;18.92;;;9.70;99.90;;;;;;5006502;28;20504;-79
2020/12/16 04:50:31;;;;;;;41.33;18.00;;;9.70;99.90;;;;;;5000983;28;20034;-79
2020/12/16 04:53:02;;;;;;;42.90;17.98;;;9.80;99.90;;;;;;5007381;28;20034;-79
2020/12/16 04:55:27;;;;;;;36.05;17.10;;;9.80;99.90;;;;;;5005999;28;20034;-80
2020/12/16 04:57:53;;;;;;;30.70;15.50;;;9.80;99.90;;;;;;5007702;28;20037;-79
2020/12/16 05:00:20;;;;;;;35.53;15.63;;;9.80;99.90;;;;;;5007807;28;20030;-79
2020/12/16 05:02:55;;;;;;;32.13;16.70;;;9.80;99.90;;;;;;4998471;28;20030;-79
2020/12/16 05:05:22;;;;;;;40.92;17.55;;;9.80;99.90;;;;;;5008006;28;20087;-79
2020/12/16 05:07:48;;;;;;;42.47;18.35;;;9.80;99.90;;;;;;5006581;28;20385;-79
2020/12/16 05:10:37;;;;;;;37.03;17.50;;;9.80;99.90;;;;;;5008003;28;20121;-79
2020/12/16 05:13:09;;;;;;;29.33;15.02;;;9.80;99.90;;;;;;5005777;28;20052;-79
2020/12/16 05:15:36;;;;;;;35.17;15.60;;;9.80;99.90;;;;;;5007811;28;20516;-79
2020/12/16 05:18:13;;;;;;;29.27;14.68;;;9.80;99.90;;;;;;5005374;28;20038;-79
2020/12/16 05:20:42;;;;;;;33.72;16.33;;;9.80;99.90;;;;;;5007760;28;20030;-79
2020/12/16 05:23:08;;;;;;;33.65;15.95;;;9.80;99.90;;;;;;4998648;28;20109;-79
2020/12/16 05:25:35;;;;;;;37.17;15.98;;;9.80;99.90;;;;;;5008575;28;20160;-79
2020/12/16 05:28:01;;;;;;;40.85;18.23;;;9.70;99.90;;;;;;5004107;28;20030;-79
2020/12/16 05:30:27;;;;;;;35.80;17.48;;;9.70;99.90;;;;;;5003785;28;20101;-79
2020/12/16 05:32:53;;;;;;;35.55;16.83;;;9.70;99.90;;;;;;5009307;28;20500;-80
2020/12/16 05:35:31;;;;;;;37.80;16.98;;;9.70;99.90;;;;;;5011759;28;20388;-79
2020/12/16 05:38:04;;;;;;;34.13;16.00;;;9.80;99.90;;;;;;5005951;28;20026;-79
2020/12/16 05:40:30;;;;;;;31.33;15.43;;;9.80;99.90;;;;;;5010501;28;20030;-79
2020/12/16 05:42:57;;;;;;;34.53;16.52;;;9.80;99.90;;;;;;5010705;28;20034;-79
2020/12/16 05:45:26;;;;;;;33.85;16.42;;;9.90;99.90;;;;;;5011471;28;20034;-79
2020/12/16 05:47:59;;;;;;;38.45;16.42;;;9.90;99.90;;;;;;4993888;28;20110;-80
2020/12/16 05:50:28;;;;;;;35.22;17.23;;;9.90;99.90;;;;;;5009904;28;20145;-79
2020/12/16 05:53:08;;;;;;;35.47;16.65;;;9.80;99.90;;;;;;5006801;28;20034;-80
2020/12/16 05:55:34;;;;;;;33.95;16.73;;;9.80;99.90;;;;;;5010104;28;20064;-80
2020/12/16 05:58:07;;;;;;;33.47;16.15;;;9.90;99.90;;;;;;5009331;28;20045;-79
2020/12/16 06:00:53;;;;;;;36.17;15.80;;;9.80;99.90;;;;;;5004768;28;20041;-79
2020/12/16 06:03:39;;;;;;;31.05;15.95;;;9.80;99.90;;;;;;5002363;28;20389;-80
2020/12/16 06:06:09;;;;;;;34.63;15.18;;;9.80;99.90;;;;;;4998611;28;20034;-79
2020/12/16 06:08:37;;;;;;;31.27;15.52;;;9.80;99.90;;;;;;5004299;28;20054;-79
2020/12/16 06:11:04;;;;;;;37.67;16.48;;;9.70;99.90;;;;;;5001090;28;20481;-79
2020/12/16 06:13:29;;;;;;;29.48;13.75;;;9.80;99.90;;;;;;5007966;28;20473;-79
2020/12/16 06:15:58;;;;;;;34.63;15.30;;;9.80;99.90;;;;;;5001547;28;20032;-79
2020/12/16 06:18:26;;;;;;;31.77;15.38;;;9.80;99.90;;;;;;5009399;28;20022;-79
2020/12/16 06:20:52;;;;;;;32.95;15.05;;;9.80;99.90;;;;;;5009340;28;20037;-78
2020/12/16 06:23:21;;;;;;;29.65;14.77;;;9.80;99.90;;;;;;5005320;28;20029;-78
2020/12/16 06:25:52;;;;;;;33.80;15.88;;;9.80;99.90;;;;;;5009416;28;20392;-75
2020/12/16 06:28:18;;;;;;;;;;;9.80;99.90;;;;;;5006967;28;20085;-78
2020/12/16 06:30:57;;;;;;;31.27;14.95;;;9.80;99.90;;;;;;5008653;28;20376;-78
2020/12/16 06:33:38;;;;;;;33.58;14.38;;;9.80;99.90;;;;;;5008549;28;20038;-79
2020/12/16 06:36:06;;;;;;;33.05;14.52;;;9.90;99.90;;;;;;5009246;28;20037;-78
2020/12/16 06:38:46;;;;;;;28.80;13.65;;;9.80;99.90;;;;;;5005274;28;20034;-77
2020/12/16 06:41:21;;;;;;;33.50;14.93;;;9.90;99.90;;;;;;5023988;28;20026;-77
2020/12/16 06:43:48;;;;;;;31.73;15.02;;;9.90;99.90;;;;;;5010315;28;20024;-78
2020/12/16 06:46:32;;;;;;;35.13;15.55;;;9.90;99.90;;;;;;4994040;28;20121;-78
2020/12/16 06:49:05;;;;;;;32.83;14.88;;;9.90;99.90;;;;;;4992205;28;20117;-79
2020/12/16 06:51:39;;;;;;;33.10;15.20;;;9.80;99.90;;;;;;5009911;28;20034;-79
2020/12/16 06:54:09;;;;;;;29.02;13.85;;;9.80;99.90;;;;;;5009469;28;20391;-77
2020/12/16 06:56:35;;;;;;;35.47;15.23;;;9.80;99.90;;;;;;5010336;28;20435;-78
2020/12/16 06:59:01;;;;;;;30.92;14.70;;;9.80;99.90;;;;;;5010246;28;20443;-79
2020/12/16 07:01:27;;;;;;;33.50;14.35;;;9.80;99.90;;;;;;5010036;28;20054;-78
2020/12/16 07:03:52;;;;;;;33.15;14.77;;;9.70;99.90;;;;;;5009700;28;20069;-78
2020/12/16 07:06:30;;;;;;;32.30;15.00;;;9.80;99.90;;;;;;5009707;28;20403;-79
2020/12/16 07:09:15;;;;;;;32.70;15.25;;;9.70;99.90;;;;;;5009631;28;20087;-80
2020/12/16 07:11:50;;;;;;;29.60;13.65;;;9.80;99.90;;;;;;5008889;28;20547;-80
2020/12/16 07:14:18;;;;;;;30.90;14.57;;;9.70;99.90;;;;;;5008205;28;20041;-79
2020/12/16 07:16:44;;;;;;;28.38;14.18;;;9.90;99.90;;;;;;5007959;28;20036;-81
2020/12/16 07:19:13;;;;;;;30.73;14.77;;;9.80;99.90;;;;;;5008047;28;20029;-82
2020/12/16 07:21:42;;;;;;;26.85;13.55;;;9.90;99.90;;;;;;4990377;28;20030;-78
2020/12/16 07:24:12;;;;;;;32.50;15.07;;;9.90;99.90;;;;;;5002350;28;20156;-78
2020/12/16 07:26:48;;;;;;;33.08;14.10;;;9.90;99.90;;;;;;5006356;28;20034;-79
2020/12/16 07:29:20;;;;;;;30.50;14.68;;;9.80;99.90;;;;;;5006167;28;20025;-78
2020/12/16 07:32:02;;;;;;;35.25;14.43;;;9.80;99.90;;;;;;5006001;28;20037;-78
2020/12/16 07:34:29;;;;;;;28.13;12.95;;;9.80;99.90;;;;;;5003842;28;20041;-78
2020/12/16 07:37:00;;;;;;;26.35;13.75;;;9.80;99.90;;;;;;5005667;28;20038;-79
2020/12/16 07:39:26;;;;;;;27.30;12.82;;;9.70;99.90;;;;;;4999030;28;20030;-78
2020/12/16 07:41:55;;;;;;;31.13;13.80;;;9.80;99.90;;;;;;5002302;28;20385;-78
2020/12/16 07:44:21;;;;;;;35.08;14.80;;;9.70;99.90;;;;;;5004854;28;20045;-79
2020/12/16 07:46:46;;;;;;;37.20;13.88;;;9.80;99.90;;;;;;5000182;28;20060;-78
2020/12/16 07:49:13;;;;;;;26.95;13.15;;;9.90;99.90;;;;;;5001855;28;20041;-79
2020/12/16 07:51:38;;;;;;;28.70;13.77;;;9.80;99.90;;;;;;5003833;28;20029;-86
2020/12/16 07:54:07;;;;;;;50.38;15.65;;;9.70;99.90;;;;;;5001097;28;20075;-78
2020/12/16 07:56:32;;;;;;;52.97;16.25;;;9.80;99.90;;;;;;5004142;28;20052;-81
2020/12/16 07:59:08;;;;;;;62.95;16.23;;;9.90;99.90;;;;;;5001073;28;20853;-78
2020/12/16 08:01:34;;;;;;;52.45;14.70;;;9.90;99.90;;;;;;5003280;28;20030;-75
2020/12/16 08:04:03;;;;;;;44.55;14.70;;;9.90;99.90;;;;;;5000902;28;20045;-76
2020/12/16 08:06:28;;;;;;;56.88;14.93;;;9.80;99.90;;;;;;5003858;28;20101;-77
2020/12/16 08:08:55;;;;;;;54.72;15.07;;;9.70;99.90;;;;;;5003994;28;20692;-78
2020/12/16 08:11:25;;;;;;;45.92;15.32;;;9.70;99.90;;;;;;4999641;28;20730;-77
2020/12/16 08:13:51;;;;;;;49.50;16.85;;;9.80;99.90;;;;;;5002519;28;20036;-77
2020/12/16 08:16:16;;;;;;;48.42;14.55;;;9.90;99.90;;;;;;5002053;28;20112;-75
2020/12/16 08:18:46;;;;;;;32.83;15.65;;;9.80;99.90;;;;;;5004250;28;20477;-77
2020/12/16 08:21:19;;;;;;;34.33;13.95;;;9.80;99.90;;;;;;5004367;28;20559;-77
2020/12/16 08:23:46;;;;;;;27.67;13.02;;;9.80;99.90;;;;;;5002249;28;20034;-76
2020/12/16 08:26:12;;;;;;;31.83;13.52;;;9.90;99.90;;;;;;5004478;28;20084;-77
2020/12/16 08:28:37;;;;;;;32.78;14.38;;;9.90;99.90;;;;;;5003438;28;20507;-77
2020/12/16 08:31:03;;;;;;;33.35;13.15;;;10.00;99.90;;;;;;5002296;28;20026;-77
2020/12/16 08:33:30;;;;;;;30.42;13.15;;;10.00;99.90;;;;;;5004698;28;20034;-77
2020/12/16 08:36:06;;;;;;;29.85;14.13;;;10.10;99.90;;;;;;5003989;28;20018;-77
2020/12/16 08:38:38;;;;;;;33.72;14.90;;;10.10;99.90;;;;;;5001453;28;20026;-77
2020/12/16 08:41:09;;;;;;;27.25;12.90;;;10.10;99.90;;;;;;5004224;28;20036;-79
2020/12/16 08:43:37;;;;;;;23.60;13.20;;;10.10;99.90;;;;;;5000496;28;20080;-77
2020/12/16 08:46:15;;;;;;;25.48;12.70;;;10.10;99.90;;;;;;5001903;28;20038;-77
2020/12/16 08:48:43;;;;;;;26.95;14.02;;;10.20;99.90;;;;;;5001732;28;20084;-76
2020/12/16 08:51:10;;;;;;;30.15;13.20;;;10.20;99.90;;;;;;5001819;28;20034;-76
2020/12/16 08:57:05;;;;;;;31.13;14.32;;;10.40;99.90;;;;;;4974675;28;20658;-76
2020/12/16 08:59:30;;;;;;;32.72;13.95;;;10.40;99.90;;;;;;4979324;28;20038;-77
2020/12/16 09:02:02;;;;;;;27.33;14.43;;;10.40;99.90;;;;;;4993162;28;20396;-80
2020/12/16 09:04:30;;;;;;;;;;;10.40;99.90;;;;;;5001370;23;20058;-78
2020/12/16 09:07:03;;;;;;;31.23;15.05;;;10.50;99.90;;;;;;4985238;28;19943;-78
2020/12/16 09:09:30;;;;;;;30.85;15.02;;;10.40;99.90;;;;;;4987561;28;20029;-77
2020/12/16 09:12:19;;;;;;;31.10;16.20;;;10.30;99.90;;;;;;4978991;28;20029;-76
2020/12/16 09:15:02;;;;;;;31.23;16.27;;;10.50;99.90;;;;;;4983717;28;20031;-79
2020/12/16 09:17:29;;;;;;;33.92;15.70;;;10.50;99.90;;;;;;4987044;28;20405;-77
2020/12/16 09:19:56;;;;;;;30.23;14.27;;;10.60;99.90;;;;;;4984378;28;20030;-78
2020/12/16 09:22:27;;;;;;;30.15;14.70;;;10.60;99.90;;;;;;4981670;28;20041;-79
2020/12/16 09:24:56;;;;;;;28.45;13.77;;;10.70;99.90;;;;;;4984909;28;20084;-76
2020/12/16 09:27:22;;;;;;;26.48;13.77;;;10.70;99.90;;;;;;4983901;28;20130;-76
2020/12/16 09:29:48;;;;;;;29.23;15.13;;;10.70;99.90;;;;;;4987340;28;20602;-71
2020/12/16 09:32:25;;;;;;;31.83;15.60;;;10.70;99.90;;;;;;4983446;28;20041;-74
2020/12/16 09:34:52;;;;;;;21.25;11.52;;;10.70;99.90;;;;;;4984236;28;21344;-77
2020/12/16 09:37:23;;;;;;;11.63;5.57;;;10.80;99.90;;;;;;4984288;28;20046;-79
2020/12/16 09:39:49;;;;;;;7.38;4.25;;;10.70;99.90;;;;;;4987098;28;20040;-78
2020/12/16 09:42:19;;;;;;;10.23;6.13;;;10.70;99.90;;;;;;4985304;28;20034;-74
2020/12/16 09:44:45;;;;;;;12.50;6.88;;;10.80;99.90;;;;;;4986023;28;20038;-76
2020/12/16 09:47:18;;;;;;;17.50;9.23;;;10.90;99.90;;;;;;4986833;28;20069;-77
2020/12/16 09:49:56;;;;;;;15.23;8.52;;;11.00;99.90;;;;;;4988518;28;20037;-77
2020/12/16 09:52:33;;;;;;;10.07;5.95;;;11.10;99.90;;;;;;4985945;28;20042;-78
2020/12/16 09:55:15;;;;;;;16.08;8.13;;;11.00;99.90;;;;;;4989848;28;20085;-79
2020/12/16 09:57:42;;;;;;;18.17;9.00;;;11.10;99.90;;;;;;4980050;28;20038;-79
2020/12/16 10:00:08;;;;;;;12.43;6.40;;;11.20;99.90;;;;;;4985290;28;20038;-79
2020/12/16 10:02:33;;;;;;;8.75;4.47;;;11.20;99.90;;;;;;4982880;28;20038;-78
2020/12/16 10:04:59;;;;;;;7.30;4.80;;;11.20;99.90;;;;;;4983963;28;20118;-79
2020/12/16 10:07:24;;;;;;;10.27;5.90;;;11.20;99.90;;;;;;4989522;28;20117;-84
2020/12/16 10:09:54;;;;;;;16.55;7.30;;;11.30;99.90;;;;;;4992489;28;20109;-79
2020/12/16 10:12:22;;;;;;;15.90;7.18;;;11.40;99.90;;;;;;4996773;28;20021;-79
2020/12/16 10:14:47;;;;;;;12.95;6.28;;;11.50;99.90;;;;;;4996178;28;20027;-79
2020/12/16 10:17:13;;;;;;;10.00;5.75;;;11.50;99.90;;;;;;4995563;28;20041;-80
2020/12/16 10:19:39;;;;;;;6.35;4.28;;;11.50;99.90;;;;;;4995248;28;20053;-80
2020/12/16 10:22:05;;;;;;;15.48;4.13;;;11.50;99.90;;;;;;4994808;28;20185;-77
2020/12/16 10:24:30;;;;;;;9.18;4.85;;;11.40;99.90;;;;;;4990690;28;20393;-81
2020/12/16 10:26:55;;;;;;;7.13;4.30;;;11.40;99.90;;;;;;4993773;28;21273;-87
2020/12/16 10:29:21;;;;;;;8.90;4.70;;;11.40;99.90;;;;;;4990182;28;20031;-85
2020/12/16 10:31:48;;;;;;;6.75;4.38;;;11.40;99.90;;;;;;4996092;28;20539;-86
2020/12/16 10:34:14;;;;;;;5.53;4.05;;;11.40;99.90;;;;;;4993665;28;20493;-82
2020/12/16 10:36:39;;;;;;;6.25;4.45;;;11.40;99.90;;;;;;4993643;28;20038;-79
2020/12/16 10:39:05;;;;;;;8.80;4.57;;;11.40;99.90;;;;;;4991566;28;20052;-78
2020/12/16 10:41:30;;;;;;;6.68;4.47;;;11.40;99.90;;;;;;4994490;28;20041;-80
2020/12/16 10:43:56;;;;;;;10.52;6.00;;;11.50;99.90;;;;;;4995648;28;20555;-79
2020/12/16 10:46:21;;;;;;;12.35;6.82;;;11.50;99.90;;;;;;4995053;28;20402;-83
2020/12/16 10:48:47;;;;;;;13.35;7.25;;;11.50;99.90;;;;;;4993972;28;20033;-77
2020/12/16 10:51:12;;;;;;;14.05;7.97;;;11.50;99.90;;;;;;4995106;28;20050;-84
2020/12/16 10:53:38;;;;;;;14.10;7.70;;;11.50;99.90;;;;;;4991804;28;20376;-86
2020/12/16 10:56:03;;;;;;;16.25;8.23;;;11.50;99.90;;;;;;4990778;28;20028;-87
2020/12/16 10:58:29;;;;;;;15.77;8.60;;;11.50;99.90;;;;;;4995276;28;20014;-87
2020/12/16 11:00:54;;;;;;;16.70;9.73;;;11.50;99.90;;;;;;4994554;28;20168;-86
2020/12/16 11:03:20;;;;;;;19.70;10.85;;;11.60;99.90;;;;;;4991944;28;20119;-78
2020/12/16 11:05:45;;;;;;;22.42;12.15;;;11.60;99.90;;;;;;4990452;28;20065;-76
2020/12/16 11:08:11;;;;;;;24.23;12.30;;;11.50;99.90;;;;;;4994893;28;20054;-76
2020/12/16 11:10:36;;;;;;;26.45;13.40;;;11.50;99.90;;;;;;4993525;28;20400;-76
2020/12/16 11:13:04;;;;;;;26.92;13.20;;;11.50;99.90;;;;;;4993089;28;20436;-75
2020/12/16 11:15:30;;;;;;;25.90;12.88;;;11.50;99.90;;;;;;4994116;28;20030;-76
2020/12/16 11:17:56;;;;;;;26.92;13.23;;;11.50;99.90;;;;;;4992773;28;20136;-76
2020/12/16 11:20:21;;;;;;;26.40;13.93;;;11.50;99.90;;;;;;4992937;28;20515;-76
2020/12/16 11:22:47;;;;;;;26.02;13.63;;;11.40;99.90;;;;;;4989095;28;20113;-76
2020/12/16 11:25:13;;;;;;;22.98;12.40;;;11.40;99.90;;;;;;4996157;28;20045;-79
2020/12/16 11:27:39;;;;;;;23.70;12.48;;;11.40;99.90;;;;;;4995449;28;20588;-78
2020/12/16 11:30:04;;;;;;;27.80;14.07;;;11.40;99.90;;;;;;4995889;28;20116;-78
2020/12/16 11:32:30;;;;;;;25.88;12.68;;;11.40;99.90;;;;;;4994094;28;20030;-78
2020/12/16 11:34:55;;;;;;;26.48;13.88;;;11.40;99.90;;;;;;4991723;28;20385;-78
2020/12/16 11:37:21;;;;;;;26.13;14.18;;;11.40;99.90;;;;;;4992359;28;20076;-78
2020/12/16 11:39:46;;;;;;;26.35;13.48;;;11.40;99.90;;;;;;4995692;28;20125;-78
2020/12/16 11:42:12;;;;;;;28.27;13.93;;;11.30;99.90;;;;;;4995184;28;20045;-78
2020/12/16 11:44:37;;;;;;;32.40;14.18;;;11.40;99.90;;;;;;4994620;28;20056;-79
2020/12/16 11:47:04;;;;;;;24.25;13.65;;;11.40;99.90;;;;;;4995766;28;20030;-79
2020/12/16 11:49:30;;;;;;;27.02;13.05;;;11.30;99.90;;;;;;4994586;28;20038;-79
2020/12/16 11:51:56;;;;;;;26.40;13.07;;;11.30;99.90;;;;;;4994319;28;20070;-78
2020/12/16 11:54:22;;;;;;;28.70;12.90;;;11.20;99.90;;;;;;4995291;28;20038;-76
2020/12/16 11:56:48;;;;;;;26.58;13.65;;;11.20;99.90;;;;;;4996816;28;20523;-77
2020/12/16 11:59:13;;;;;;;24.65;12.95;;;11.10;99.90;;;;;;4995489;28;20029;-77
2020/12/16 12:01:41;;;;;;;25.30;11.80;;;11.10;99.90;;;;;;4992426;28;20026;-77
2020/12/16 12:04:06;;;;;;;25.23;13.27;;;11.10;99.90;;;;;;4994566;28;20049;-77
2020/12/16 12:06:32;;;;;;;26.98;12.63;;;11.10;99.90;;;;;;4994710;28;20797;-77
2020/12/16 12:08:57;;;;;;;27.58;12.35;;;11.20;99.90;;;;;;4996548;28;20040;-79
2020/12/16 12:11:23;;;;;;;28.10;13.55;;;11.10;99.90;;;;;;4994294;28;21927;-78
2020/12/16 12:13:48;;;;;;;26.42;13.52;;;11.20;99.90;;;;;;4993783;28;20145;-78
2020/12/16 12:16:15;;;;;;;26.65;12.98;;;11.30;99.90;;;;;;4993496;28;20049;-80
2020/12/16 12:18:43;;;;;;;28.25;11.75;;;11.30;99.90;;;;;;4995324;28;20033;-80
2020/12/16 12:21:10;;;;;;;26.02;12.68;;;11.30;99.90;;;;;;4994182;28;21474;-83
2020/12/16 12:23:36;;;;;;;23.88;12.38;;;11.30;99.90;;;;;;4993591;28;20041;-80
2020/12/16 12:26:03;;;;;;;25.60;12.50;;;11.30;99.90;;;;;;4994311;28;20508;-79
2020/12/16 12:28:29;;;;;;;26.25;12.55;;;11.30;99.90;;;;;;4993758;28;20038;-79
2020/12/16 12:30:54;;;;;;;24.40;12.20;;;11.30;99.90;;;;;;4992872;28;20088;-79
2020/12/16 12:33:20;;;;;;;25.08;12.23;;;11.40;99.90;;;;;;4997982;28;20543;-79
2020/12/16 12:35:46;;;;;;;22.17;11.73;;;11.40;99.90;;;;;;4998257;28;20038;-80
2020/12/16 12:38:12;;;;;;;23.15;12.25;;;11.40;99.90;;;;;;4998100;28;20083;-79
2020/12/16 12:40:37;;;;;;;22.38;11.88;;;11.40;99.90;;;;;;4996934;28;20022;-79
2020/12/16 12:43:03;;;;;;;27.00;14.02;;;11.40;99.90;;;;;;4999012;28;20027;-79